sensor_id;sensor_type;location;lat;lon;timestamp;pressure;altitude;pressure_sealevel;temperature;humidity
36254;BME280;22291;52.250;21.228;2022-12-07T00:01:41;99562.39;;;1.11;96.76
36254;BME280;22291;52.250;21.228;2022-12-07T00:04:14;99554.66;;;1.09;96.72
36254;BME280;22291;52.250;21.228;2022-12-07T00:06:46;99558.11;;;1.10;96.72
36254;BME280;22291;52.250;21.228;2022-12-07T00:09:17;99554.66;;;1.09;96.76
36254;BME280;22291;52.250;21.228;2022-12-07T00:11:47;99544.26;;;1.08;96.79
36254;BME280;22291;52.250;21.228;2022-12-07T00:14:18;99543.18;;;1.09;96.81
36254;BME280;22291;52.250;21.228;2022-12-07T00:16:45;99545.85;;;1.06;96.65
36254;BME280;22291;52.250;21.228;2022-12-07T00:19:14;99539.98;;;1.07;96.80
36254;BME280;22291;52.250;21.228;2022-12-07T00:21:42;99531.47;;;1.05;96.72
36254;BME280;22291;52.250;21.228;2022-12-07T00:24:10;99529.06;;;1.03;96.80
36254;BME280;22291;52.250;21.228;2022-12-07T00:26:40;99525.88;;;1.01;96.64
36254;BME280;22291;52.250;21.228;2022-12-07T00:29:20;99541.58;;;0.98;96.64
36254;BME280;22291;52.250;21.228;2022-12-07T00:31:50;99536.23;;;0.95;96.80
36254;BME280;22291;52.250;21.228;2022-12-07T00:34:21;99535.98;;;0.94;96.91
36254;BME280;22291;52.250;21.228;2022-12-07T00:36:48;99537.58;;;0.92;96.95
36254;BME280;22291;52.250;21.228;2022-12-07T00:39:15;99536.78;;;0.92;97.08
36254;BME280;22291;52.250;21.228;2022-12-07T00:41:42;99531.97;;;0.91;97.18
36254;BME280;22291;52.250;21.228;2022-12-07T00:44:09;99539.70;;;0.90;97.12
36254;BME280;22291;52.250;21.228;2022-12-07T00:46:35;99533.05;;;0.90;97.20
36254;BME280;22291;52.250;21.228;2022-12-07T00:49:03;99536.50;;;0.91;97.27
36254;BME280;22291;52.250;21.228;2022-12-07T00:51:29;99534.38;;;0.90;97.36
36254;BME280;22291;52.250;21.228;2022-12-07T00:53:55;99529.84;;;0.91;97.35
36254;BME280;22291;52.250;21.228;2022-12-07T00:56:27;99531.18;;;0.91;97.36
36254;BME280;22291;52.250;21.228;2022-12-07T00:58:57;99529.05;;;0.90;97.35
36254;BME280;22291;52.250;21.228;2022-12-07T01:01:28;99530.39;;;0.90;97.43
36254;BME280;22291;52.250;21.228;2022-12-07T01:03:57;99531.18;;;0.91;97.46
36254;BME280;22291;52.250;21.228;2022-12-07T01:06:27;99528.25;;;0.92;97.48
36254;BME280;22291;52.250;21.228;2022-12-07T01:08:56;99528.80;;;0.92;97.48
36254;BME280;22291;52.250;21.228;2022-12-07T01:11:25;99530.92;;;0.92;97.43
36254;BME280;22291;52.250;21.228;2022-12-07T01:13:56;99534.91;;;0.92;97.39
36254;BME280;22291;52.250;21.228;2022-12-07T01:16:26;99533.84;;;0.91;97.40
36254;BME280;22291;52.250;21.228;2022-12-07T01:18:56;99533.03;;;0.88;97.36
36254;BME280;22291;52.250;21.228;2022-12-07T01:21:29;99523.97;;;0.86;97.40
36254;BME280;22291;52.250;21.228;2022-12-07T01:24:07;99531.17;;;0.86;97.53
36254;BME280;22291;52.250;21.228;2022-12-07T01:26:35;99525.05;;;0.85;97.63
36254;BME280;22291;52.250;21.228;2022-12-07T01:29:02;99523.72;;;0.85;97.75
36254;BME280;22291;52.250;21.228;2022-12-07T01:31:29;99516.24;;;0.85;97.81
36254;BME280;22291;52.250;21.228;2022-12-07T01:33:58;99519.98;;;0.84;97.85
36254;BME280;22291;52.250;21.228;2022-12-07T01:36:29;99523.44;;;0.87;98.00
36254;BME280;22291;52.250;21.228;2022-12-07T01:39:00;99517.31;;;0.86;98.00
36254;BME280;22291;52.250;21.228;2022-12-07T01:41:32;99516.77;;;0.87;98.07
36254;BME280;22291;52.250;21.228;2022-12-07T01:49:41;99512.02;;;0.89;98.32
36254;BME280;22291;52.250;21.228;2022-12-07T01:52:24;99514.92;;;0.90;98.47
36254;BME280;22291;52.250;21.228;2022-12-07T01:54:58;99510.16;;;0.92;98.54
36254;BME280;22291;52.250;21.228;2022-12-07T01:57:28;99507.49;;;0.92;98.52
36254;BME280;22291;52.250;21.228;2022-12-07T01:59:56;99502.42;;;0.93;98.55
36254;BME280;22291;52.250;21.228;2022-12-07T02:02:41;99504.82;;;0.95;98.63
36254;BME280;22291;52.250;21.228;2022-12-07T02:05:07;99498.95;;;0.95;98.71
36254;BME280;22291;52.250;21.228;2022-12-07T02:07:36;99498.44;;;0.96;98.67
36254;BME280;22291;52.250;21.228;2022-12-07T02:16:14;99490.70;;;0.97;98.83
36254;BME280;22291;52.250;21.228;2022-12-07T02:18:28;99492.56;;;0.99;98.92
36254;BME280;22291;52.250;21.228;2022-12-07T02:20:57;99495.78;;;1.01;98.99
36254;BME280;22291;52.250;21.228;2022-12-07T02:35:03;99484.31;;;1.10;99.21
36254;BME280;22291;52.250;21.228;2022-12-07T02:37:37;99484.59;;;1.11;99.25
36254;BME280;22291;52.250;21.228;2022-12-07T02:40:28;99482.73;;;1.15;99.32
36254;BME280;22291;52.250;21.228;2022-12-07T02:43:12;99481.41;;;1.15;99.38
36254;BME280;22291;52.250;21.228;2022-12-07T02:45:29;99475.55;;;1.18;99.46
36254;BME280;22291;52.250;21.228;2022-12-07T02:48:00;99476.08;;;1.20;99.53
36254;BME280;22291;52.250;21.228;2022-12-07T02:50:27;99479.01;;;1.23;99.65
36254;BME280;22291;52.250;21.228;2022-12-07T02:52:56;99475.54;;;1.25;99.66
36254;BME280;22291;52.250;21.228;2022-12-07T02:55:26;99471.00;;;1.26;99.66
36254;BME280;22291;52.250;21.228;2022-12-07T03:00:46;99472.61;;;1.32;99.76
36254;BME280;22291;52.250;21.228;2022-12-07T03:03:25;99476.34;;;1.34;99.66
36254;BME280;22291;52.250;21.228;2022-12-07T03:06:06;99464.88;;;1.36;99.74
36254;BME280;22291;52.250;21.228;2022-12-07T03:09:01;99465.16;;;1.37;99.81
36254;BME280;22291;52.250;21.228;2022-12-07T03:11:51;99461.95;;;1.40;99.87
36254;BME280;22291;52.250;21.228;2022-12-07T03:14:28;99467.80;;;1.44;99.92
36254;BME280;22291;52.250;21.228;2022-12-07T03:17:24;99460.86;;;1.46;100.00
36254;BME280;22291;52.250;21.228;2022-12-07T03:19:32;99457.93;;;1.47;100.00
36254;BME280;22291;52.250;21.228;2022-12-07T03:22:03;99460.61;;;1.50;100.00
36254;BME280;22291;52.250;21.228;2022-12-07T03:24:55;99461.13;;;1.52;100.00
36254;BME280;22291;52.250;21.228;2022-12-07T03:27:25;99464.87;;;1.54;100.00
36254;BME280;22291;52.250;21.228;2022-12-07T03:30:10;99466.45;;;1.55;100.00
36254;BME280;22291;52.250;21.228;2022-12-07T03:33:00;99458.18;;;1.56;100.00
36254;BME280;22291;52.250;21.228;2022-12-07T03:35:43;99457.12;;;1.57;100.00
36254;BME280;22291;52.250;21.228;2022-12-07T03:38:48;99458.46;;;1.57;100.00
36254;BME280;22291;52.250;21.228;2022-12-07T03:41:27;99458.46;;;1.57;100.00
36254;BME280;22291;52.250;21.228;2022-12-07T03:43:57;99454.20;;;1.59;100.00
36254;BME280;22291;52.250;21.228;2022-12-07T03:46:45;99450.98;;;1.59;100.00
36254;BME280;22291;52.250;21.228;2022-12-07T03:55:06;99445.93;;;1.60;99.98
36254;BME280;22291;52.250;21.228;2022-12-07T03:57:39;99442.47;;;1.57;99.80
36254;BME280;22291;52.250;21.228;2022-12-07T04:00:10;99448.34;;;1.57;99.76
36254;BME280;22291;52.250;21.228;2022-12-07T04:02:37;99445.94;;;1.55;99.74
36254;BME280;22291;52.250;21.228;2022-12-07T04:05:06;99444.59;;;1.53;99.59
36254;BME280;22291;52.250;21.228;2022-12-07T04:07:33;99442.47;;;1.52;99.61
36254;BME280;22291;52.250;21.228;2022-12-07T04:09:59;99442.74;;;1.51;99.53
36254;BME280;22291;52.250;21.228;2022-12-07T04:12:26;99437.41;;;1.51;99.54
36254;BME280;22291;52.250;21.228;2022-12-07T04:14:52;99441.41;;;1.51;99.56
36254;BME280;22291;52.250;21.228;2022-12-07T04:17:18;99442.47;;;1.49;99.51
36254;BME280;22291;52.250;21.228;2022-12-07T04:19:45;99443.55;;;1.48;99.48
36254;BME280;22291;52.250;21.228;2022-12-07T04:22:11;99446.73;;;1.48;99.48
36254;BME280;22291;52.250;21.228;2022-12-07T04:24:39;99445.94;;;1.47;99.50
36254;BME280;22291;52.250;21.228;2022-12-07T04:27:06;99438.75;;;1.45;99.36
36254;BME280;22291;52.250;21.228;2022-12-07T04:29:32;99438.48;;;1.44;99.33
36254;BME280;22291;52.250;21.228;2022-12-07T04:31:59;99437.43;;;1.40;99.22
36254;BME280;22291;52.250;21.228;2022-12-07T04:34:26;99433.70;;;1.39;99.25
36254;BME280;22291;52.250;21.228;2022-12-07T04:36:53;99435.30;;;1.37;99.33
36254;BME280;22291;52.250;21.228;2022-12-07T04:39:27;99424.11;;;1.35;99.27
36254;BME280;22291;52.250;21.228;2022-12-07T04:41:58;99433.16;;;1.34;99.30
36254;BME280;22291;52.250;21.228;2022-12-07T04:44:28;99430.52;;;1.32;99.26
36254;BME280;22291;52.250;21.228;2022-12-07T04:46:55;99431.57;;;1.30;99.25
36254;BME280;22291;52.250;21.228;2022-12-07T04:49:24;99425.44;;;1.27;99.16
36254;BME280;22291;52.250;21.228;2022-12-07T04:51:52;99428.13;;;1.25;99.10
36254;BME280;22291;52.250;21.228;2022-12-07T04:54:18;99432.65;;;1.22;99.03
36254;BME280;22291;52.250;21.228;2022-12-07T04:56:45;99429.45;;;1.17;98.91
36254;BME280;22291;52.250;21.228;2022-12-07T04:59:15;99431.31;;;1.14;99.06
36254;BME280;22291;52.250;21.228;2022-12-07T05:01:42;99431.06;;;1.13;99.05
36254;BME280;22291;52.250;21.228;2022-12-07T05:04:11;99430.53;;;1.11;99.08
36254;BME280;22291;52.250;21.228;2022-12-07T05:06:38;99420.13;;;1.07;99.07
36254;BME280;22291;52.250;21.228;2022-12-07T05:09:05;99414.80;;;1.07;99.22
36254;BME280;22291;52.250;21.228;2022-12-07T05:11:31;99413.73;;;1.05;99.16
36254;BME280;22291;52.250;21.228;2022-12-07T05:14:16;99416.41;;;1.03;99.11
36254;BME280;22291;52.250;21.228;2022-12-07T05:16:48;99414.30;;;1.02;99.17
36254;BME280;22291;52.250;21.228;2022-12-07T05:19:18;99414.80;;;1.02;99.26
36254;BME280;22291;52.250;21.228;2022-12-07T05:21:47;99407.63;;;1.00;99.33
36254;BME280;22291;52.250;21.228;2022-12-07T05:24:15;99405.50;;;0.99;99.33
36254;BME280;22291;52.250;21.228;2022-12-07T05:26:43;99407.08;;;0.95;99.31
36254;BME280;22291;52.250;21.228;2022-12-07T05:29:14;99409.23;;;0.96;99.39
36254;BME280;22291;52.250;21.228;2022-12-07T05:31:44;99404.42;;;0.95;99.38
36254;BME280;22291;52.250;21.228;2022-12-07T05:34:13;99412.95;;;0.95;99.45
36254;BME280;22291;52.250;21.228;2022-12-07T05:36:40;99411.34;;;0.93;99.43
36254;BME280;22291;52.250;21.228;2022-12-07T05:39:07;99412.97;;;0.92;99.44
36254;BME280;22291;52.250;21.228;2022-12-07T05:41:35;99407.64;;;0.92;99.43
36254;BME280;22291;52.250;21.228;2022-12-07T05:44:21;99407.90;;;0.90;99.40
36254;BME280;22291;52.250;21.228;2022-12-07T05:46:48;99413.48;;;0.89;99.37
36254;BME280;22291;52.250;21.228;2022-12-07T05:49:15;99415.88;;;0.88;99.43
36254;BME280;22291;52.250;21.228;2022-12-07T05:51:42;99417.22;;;0.85;99.39
36254;BME280;22291;52.250;21.228;2022-12-07T05:54:09;99410.02;;;0.81;99.41
36254;BME280;22291;52.250;21.228;2022-12-07T05:56:36;99417.20;;;0.83;99.45
36254;BME280;22291;52.250;21.228;2022-12-07T05:59:02;99418.55;;;0.80;99.42
36254;BME280;22291;52.250;21.228;2022-12-07T06:01:56;99420.14;;;0.79;99.37
36254;BME280;22291;52.250;21.228;2022-12-07T06:04:39;99418.25;;;0.77;99.37
36254;BME280;22291;52.250;21.228;2022-12-07T06:07:10;99416.67;;;0.76;99.29
36254;BME280;22291;52.250;21.228;2022-12-07T06:09:40;99413.48;;;0.73;99.23
36254;BME280;22291;52.250;21.228;2022-12-07T06:12:11;99412.67;;;0.70;99.20
36254;BME280;22291;52.250;21.228;2022-12-07T06:14:58;99415.58;;;0.66;99.18
36254;BME280;22291;52.250;21.228;2022-12-07T06:17:26;99417.19;;;0.62;99.10
36254;BME280;22291;52.250;21.228;2022-12-07T06:19:53;99415.87;;;0.60;99.11
36254;BME280;22291;52.250;21.228;2022-12-07T06:22:19;99420.63;;;0.58;99.17
36254;BME280;22291;52.250;21.228;2022-12-07T06:24:46;99412.38;;;0.54;99.15
36254;BME280;22291;52.250;21.228;2022-12-07T06:27:12;99414.23;;;0.51;99.17
36254;BME280;22291;52.250;21.228;2022-12-07T06:29:40;99414.51;;;0.52;99.34
36254;BME280;22291;52.250;21.228;2022-12-07T06:32:07;99414.23;;;0.51;99.34
36254;BME280;22291;52.250;21.228;2022-12-07T06:34:35;99411.04;;;0.49;99.35
36254;BME280;22291;52.250;21.228;2022-12-07T06:37:01;99408.38;;;0.49;99.34
36254;BME280;22291;52.250;21.228;2022-12-07T06:39:30;99411.32;;;0.50;99.41
36254;BME280;22291;52.250;21.228;2022-12-07T06:41:59;99411.83;;;0.49;99.43
36254;BME280;22291;52.250;21.228;2022-12-07T06:44:25;99406.23;;;0.46;99.36
36254;BME280;22291;52.250;21.228;2022-12-07T06:46:53;99408.92;;;0.48;99.37
36254;BME280;22291;52.250;21.228;2022-12-07T06:49:20;99407.06;;;0.46;99.36
36254;BME280;22291;52.250;21.228;2022-12-07T06:51:47;99408.65;;;0.45;99.28
36254;BME280;22291;52.250;21.228;2022-12-07T06:54:15;99405.45;;;0.43;99.26
36254;BME280;22291;52.250;21.228;2022-12-07T06:56:42;99402.78;;;0.40;99.29
36254;BME280;22291;52.250;21.228;2022-12-07T06:59:10;99404.89;;;0.41;99.25
36254;BME280;22291;52.250;21.228;2022-12-07T07:01:37;99403.83;;;0.39;99.37
36254;BME280;22291;52.250;21.228;2022-12-07T07:04:03;99403.04;;;0.39;99.45
36254;BME280;22291;52.250;21.228;2022-12-07T07:06:32;99402.23;;;0.35;99.38
36254;BME280;22291;52.250;21.228;2022-12-07T07:08:59;99400.65;;;0.34;99.49
36254;BME280;22291;52.250;21.228;2022-12-07T07:11:26;99401.17;;;0.36;99.54
36254;BME280;22291;52.250;21.228;2022-12-07T07:13:53;99403.31;;;0.34;99.50
36254;BME280;22291;52.250;21.228;2022-12-07T07:16:21;99407.02;;;0.33;99.49
36254;BME280;22291;52.250;21.228;2022-12-07T07:18:47;99402.75;;;0.30;99.48
36254;BME280;22291;52.250;21.228;2022-12-07T07:21:14;99399.05;;;0.31;99.61
36254;BME280;22291;52.250;21.228;2022-12-07T07:23:40;99403.55;;;0.30;99.60
36254;BME280;22291;52.250;21.228;2022-12-07T07:26:08;99397.97;;;0.29;99.66
36254;BME280;22291;52.250;21.228;2022-12-07T07:28:35;99398.77;;;0.30;99.65
36254;BME280;22291;52.250;21.228;2022-12-07T07:31:03;99398.48;;;0.29;99.75
36254;BME280;22291;52.250;21.228;2022-12-07T07:33:30;99399.03;;;0.26;99.83
36254;BME280;22291;52.250;21.228;2022-12-07T07:35:57;99401.41;;;0.27;99.85
36254;BME280;22291;52.250;21.228;2022-12-07T07:38:23;99403.28;;;0.27;99.87
36254;BME280;22291;52.250;21.228;2022-12-07T07:40:50;99400.36;;;0.26;99.89
36254;BME280;22291;52.250;21.228;2022-12-07T07:43:17;99400.08;;;0.27;99.95
36254;BME280;22291;52.250;21.228;2022-12-07T07:45:44;99397.16;;;0.29;100.00
36254;BME280;22291;52.250;21.228;2022-12-07T07:48:12;99405.70;;;0.31;100.00
36254;BME280;22291;52.250;21.228;2022-12-07T07:50:38;99397.72;;;0.31;100.00
36254;BME280;22291;52.250;21.228;2022-12-07T07:53:06;99399.30;;;0.29;100.00
36254;BME280;22291;52.250;21.228;2022-12-07T07:55:32;99402.75;;;0.30;100.00
36254;BME280;22291;52.250;21.228;2022-12-07T07:58:00;99399.81;;;0.29;100.00
36254;BME280;22291;52.250;21.228;2022-12-07T08:00:27;99405.42;;;0.30;100.00
36254;BME280;22291;52.250;21.228;2022-12-07T08:02:54;99403.02;;;0.28;100.00
36254;BME280;22291;52.250;21.228;2022-12-07T08:05:21;99404.88;;;0.30;100.00
36254;BME280;22291;52.250;21.228;2022-12-07T08:07:48;99405.16;;;0.31;100.00
36254;BME280;22291;52.250;21.228;2022-12-07T08:10:15;99393.98;;;0.32;100.00
36254;BME280;22291;52.250;21.228;2022-12-07T08:12:44;99403.56;;;0.35;100.00
36254;BME280;22291;52.250;21.228;2022-12-07T08:15:30;99400.11;;;0.35;100.00
36254;BME280;22291;52.250;21.228;2022-12-07T08:17:59;99408.37;;;0.36;100.00
36254;BME280;22291;52.250;21.228;2022-12-07T08:20:29;99412.10;;;0.38;100.00
36254;BME280;22291;52.250;21.228;2022-12-07T08:22:59;99410.76;;;0.40;100.00
36254;BME280;22291;52.250;21.228;2022-12-07T08:25:27;99406.77;;;0.40;100.00
36254;BME280;22291;52.250;21.228;2022-12-07T08:27:55;99409.71;;;0.41;100.00
36254;BME280;22291;52.250;21.228;2022-12-07T08:30:22;99417.16;;;0.47;100.00
36254;BME280;22291;52.250;21.228;2022-12-07T08:32:52;99411.83;;;0.49;100.00
36254;BME280;22291;52.250;21.228;2022-12-07T08:35:20;99415.04;;;0.54;100.00
36254;BME280;22291;52.250;21.228;2022-12-07T08:37:48;99414.25;;;0.53;100.00
36254;BME280;22291;52.250;21.228;2022-12-07T08:40:16;99418.53;;;0.60;100.00
36254;BME280;22291;52.250;21.228;2022-12-07T12:37:55;99324.52;;;2.31;96.60
36254;BME280;22291;52.250;21.228;2022-12-07T12:42:59;99325.89;;;2.23;96.34
36254;BME280;22291;52.250;21.228;2022-12-07T12:45:31;99332.63;;;2.15;96.03
36254;BME280;22291;52.250;21.228;2022-12-07T12:48:04;99326.80;;;2.08;96.11
36254;BME280;22291;52.250;21.228;2022-12-07T12:51:35;99326.02;;;2.02;96.32
36254;BME280;22291;52.250;21.228;2022-12-07T12:53:40;99323.65;;;1.96;96.58
36254;BME280;22291;52.250;21.228;2022-12-07T12:56:27;99327.41;;;1.92;96.84
36254;BME280;22291;52.250;21.228;2022-12-07T13:07:52;99328.01;;;1.84;97.71
36254;BME280;22291;52.250;21.228;2022-12-07T13:18:38;99320.58;;;1.76;98.05
36254;BME280;22291;52.250;21.228;2022-12-07T13:29:12;99317.66;;;1.70;98.21
36254;BME280;22291;52.250;21.228;2022-12-07T13:34:39;99316.87;;;1.66;98.36
36254;BME280;22291;52.250;21.228;2022-12-07T13:40:01;99313.69;;;1.64;98.47
36254;BME280;22291;52.250;21.228;2022-12-07T13:50:57;99323.03;;;1.59;98.38
36254;BME280;22291;52.250;21.228;2022-12-07T13:53:25;99325.42;;;1.58;98.39
36254;BME280;22291;52.250;21.228;2022-12-07T13:55:53;99324.39;;;1.57;98.34
36254;BME280;22291;52.250;21.228;2022-12-07T13:58:21;99331.30;;;1.58;98.39
36254;BME280;22291;52.250;21.228;2022-12-07T14:00:49;99321.45;;;1.56;98.36
36254;BME280;22291;52.250;21.228;2022-12-07T14:03:22;99328.66;;;1.55;98.50
36254;BME280;22291;52.250;21.228;2022-12-07T14:06:02;99322.27;;;1.54;98.34
36254;BME280;22291;52.250;21.228;2022-12-07T14:08:31;99328.41;;;1.52;98.26
36254;BME280;22291;52.250;21.228;2022-12-07T14:10:58;99319.87;;;1.49;98.29
36254;BME280;22291;52.250;21.228;2022-12-07T14:13:40;99325.20;;;1.49;98.37
36254;BME280;22291;52.250;21.228;2022-12-07T14:16:22;99331.34;;;1.47;98.39
36254;BME280;22291;52.250;21.228;2022-12-07T14:19:04;99318.28;;;1.46;98.43
36254;BME280;22291;52.250;21.228;2022-12-07T14:21:33;99312.70;;;1.42;98.48
36254;BME280;22291;52.250;21.228;2022-12-07T14:24:16;99322.55;;;1.44;98.64
36254;BME280;22291;52.250;21.228;2022-12-07T14:26:48;99319.09;;;1.41;98.65
36254;BME280;22291;52.250;21.228;2022-12-07T14:31:59;99325.75;;;1.41;98.80
36254;BME280;22291;52.250;21.228;2022-12-07T14:34:28;99327.38;;;1.40;98.78
36254;BME280;22291;52.250;21.228;2022-12-07T14:36:54;99327.38;;;1.37;98.73
36254;BME280;22291;52.250;21.228;2022-12-07T14:39:20;99334.06;;;1.35;98.87
36254;BME280;22291;52.250;21.228;2022-12-07T14:41:46;99330.33;;;1.33;98.74
36254;BME280;22291;52.250;21.228;2022-12-07T14:44:16;99329.27;;;1.32;98.83
36254;BME280;22291;52.250;21.228;2022-12-07T14:46:45;99332.45;;;1.31;98.90
36254;BME280;22291;52.250;21.228;2022-12-07T14:49:13;99333.27;;;1.26;98.78
36254;BME280;22291;52.250;21.228;2022-12-07T14:51:41;99329.27;;;1.24;98.68
36254;BME280;22291;52.250;21.228;2022-12-07T14:54:18;99334.08;;;1.22;98.69
36254;BME280;22291;52.250;21.228;2022-12-07T14:58:20;99326.89;;;1.25;98.71
36254;BME280;22291;52.250;21.228;2022-12-07T15:00:53;99331.42;;;1.17;98.69
36254;BME280;22291;52.250;21.228;2022-12-07T15:03:20;99334.90;;;1.15;98.60
36254;BME280;22291;52.250;21.228;2022-12-07T15:05:48;99334.89;;;1.12;98.49
36254;BME280;22291;52.250;21.228;2022-12-07T15:08:16;99332.25;;;1.09;98.44
36254;BME280;22291;52.250;21.228;2022-12-07T15:10:44;99331.43;;;1.09;98.62
36254;BME280;22291;52.250;21.228;2022-12-07T15:37:56;99312.82;;;0.88;98.20
36254;BME280;22291;52.250;21.228;2022-12-07T15:40:23;99316.30;;;0.81;98.04
36254;BME280;22291;52.250;21.228;2022-12-07T15:42:50;99319.77;;;0.74;98.07
36254;BME280;22291;52.250;21.228;2022-12-07T15:45:19;99310.72;;;0.72;98.22
36254;BME280;22291;52.250;21.228;2022-12-07T15:47:47;99316.06;;;0.70;98.47
36254;BME280;22291;52.250;21.228;2022-12-07T15:50:21;99320.05;;;0.70;98.67
36254;BME280;22291;52.250;21.228;2022-12-07T15:52:49;99313.91;;;0.69;98.67
36254;BME280;22291;52.250;21.228;2022-12-07T15:55:16;99311.52;;;0.68;98.61
36254;BME280;22291;52.250;21.228;2022-12-07T15:57:43;99310.45;;;0.66;98.64
36254;BME280;22291;52.250;21.228;2022-12-07T16:00:11;99317.12;;;0.64;98.73
36254;BME280;22291;52.250;21.228;2022-12-07T16:02:39;99318.71;;;0.62;98.81
36254;BME280;22291;52.250;21.228;2022-12-07T16:05:08;99320.05;;;0.60;98.96
36254;BME280;22291;52.250;21.228;2022-12-07T16:07:35;99320.56;;;0.59;99.17
36254;BME280;22291;52.250;21.228;2022-12-07T16:10:04;99313.91;;;0.59;99.25
36254;BME280;22291;52.250;21.228;2022-12-07T16:12:31;99318.45;;;0.59;99.40
36254;BME280;22291;52.250;21.228;2022-12-07T16:14:57;99312.34;;;0.58;99.45
36254;BME280;22291;52.250;21.228;2022-12-07T16:17:24;99309.92;;;0.59;99.65
36254;BME280;22291;52.250;21.228;2022-12-07T16:19:50;99308.59;;;0.59;99.64
36254;BME280;22291;52.250;21.228;2022-12-07T16:22:18;99308.87;;;0.60;99.72
36254;BME280;22291;52.250;21.228;2022-12-07T16:24:44;99308.08;;;0.60;99.74
36254;BME280;22291;52.250;21.228;2022-12-07T16:27:11;99312.06;;;0.62;99.92
36254;BME280;22291;52.250;21.228;2022-12-07T16:29:37;99306.73;;;0.62;99.93
36254;BME280;22291;52.250;21.228;2022-12-07T16:32:04;99299.81;;;0.64;100.00
36254;BME280;22291;52.250;21.228;2022-12-07T16:34:31;99299.03;;;0.63;100.00
36254;BME280;22291;52.250;21.228;2022-12-07T16:36:58;99311.00;;;0.63;100.00
36254;BME280;22291;52.250;21.228;2022-12-07T16:39:27;99308.34;;;0.63;100.00
36254;BME280;22291;52.250;21.228;2022-12-07T16:41:54;99313.40;;;0.65;100.00
36254;BME280;22291;52.250;21.228;2022-12-07T16:44:22;99307.26;;;0.64;100.00
36254;BME280;22291;52.250;21.228;2022-12-07T16:46:50;99306.47;;;0.64;100.00
36254;BME280;22291;52.250;21.228;2022-12-07T16:49:16;99302.21;;;0.65;100.00
36254;BME280;22291;52.250;21.228;2022-12-07T16:51:44;99294.48;;;0.66;100.00
36254;BME280;22291;52.250;21.228;2022-12-07T16:54:14;99307.01;;;0.68;100.00
36254;BME280;22291;52.250;21.228;2022-12-07T16:56:42;99309.66;;;0.71;100.00
36254;BME280;22291;52.250;21.228;2022-12-07T16:59:09;99302.20;;;0.70;100.00
36254;BME280;22291;52.250;21.228;2022-12-07T17:07:40;99286.77;;;0.75;100.00
36254;BME280;22291;52.250;21.228;2022-12-07T17:10:08;99295.55;;;0.76;100.00
36254;BME280;22291;52.250;21.228;2022-12-07T17:12:35;99295.01;;;0.76;100.00
36254;BME280;22291;52.250;21.228;2022-12-07T17:15:01;99293.13;;;0.77;100.00
36254;BME280;22291;52.250;21.228;2022-12-07T17:17:46;99289.96;;;0.77;100.00
36254;BME280;22291;52.250;21.228;2022-12-07T17:20:14;99289.96;;;0.77;100.00
36254;BME280;22291;52.250;21.228;2022-12-07T17:22:42;99294.74;;;0.78;100.00
36254;BME280;22291;52.250;21.228;2022-12-07T17:25:09;99295.53;;;0.78;100.00
36254;BME280;22291;52.250;21.228;2022-12-07T17:27:36;99295.02;;;0.79;100.00
36254;BME280;22291;52.250;21.228;2022-12-07T17:30:07;99299.02;;;0.79;100.00
36254;BME280;22291;52.250;21.228;2022-12-07T17:32:35;99285.42;;;0.78;100.00
36254;BME280;22291;52.250;21.228;2022-12-07T17:35:03;99295.27;;;0.80;100.00
36254;BME280;22291;52.250;21.228;2022-12-07T17:37:31;99289.16;;;0.79;100.00
36254;BME280;22291;52.250;21.228;2022-12-07T17:39:59;99280.91;;;0.81;100.00
36254;BME280;22291;52.250;21.228;2022-12-07T17:42:26;99288.09;;;0.80;100.00
36254;BME280;22291;52.250;21.228;2022-12-07T17:45:07;99287.02;;;0.84;100.00
36254;BME280;22291;52.250;21.228;2022-12-07T17:47:39;99295.80;;;0.84;100.00
36254;BME280;22291;52.250;21.228;2022-12-07T17:50:07;99294.20;;;0.86;100.00
36254;BME280;22291;52.250;21.228;2022-12-07T17:52:37;99286.48;;;0.84;100.00
36254;BME280;22291;52.250;21.228;2022-12-07T17:55:24;99297.93;;;0.87;100.00
36254;BME280;22291;52.250;21.228;2022-12-07T17:57:50;99298.72;;;0.88;100.00
36254;BME280;22291;52.250;21.228;2022-12-07T18:00:18;99300.58;;;0.90;100.00
36254;BME280;22291;52.250;21.228;2022-12-07T18:02:45;99295.78;;;0.87;100.00
36254;BME280;22291;52.250;21.228;2022-12-07T18:05:12;99287.81;;;0.92;100.00
36254;BME280;22291;52.250;21.228;2022-12-07T18:07:38;99284.33;;;0.91;100.00
36254;BME280;22291;52.250;21.228;2022-12-07T18:10:06;99280.07;;;0.93;100.00
36254;BME280;22291;52.250;21.228;2022-12-07T18:12:37;99287.00;;;0.94;100.00
36254;BME280;22291;52.250;21.228;2022-12-07T18:15:08;99280.34;;;0.94;100.00
36254;BME280;22291;52.250;21.228;2022-12-07T18:17:35;99286.19;;;0.93;100.00
36254;BME280;22291;52.250;21.228;2022-12-07T18:20:03;99289.92;;;0.90;100.00
36254;BME280;22291;52.250;21.228;2022-12-07T18:22:30;99280.08;;;0.88;100.00
36254;BME280;22291;52.250;21.228;2022-12-07T18:24:57;99288.34;;;0.86;100.00
36254;BME280;22291;52.250;21.228;2022-12-07T18:27:23;99283.80;;;0.87;100.00
36254;BME280;22291;52.250;21.228;2022-12-07T18:29:50;99285.42;;;0.85;100.00
36254;BME280;22291;52.250;21.228;2022-12-07T18:32:16;99285.67;;;0.86;100.00
36254;BME280;22291;52.250;21.228;2022-12-07T18:34:42;99282.74;;;0.88;100.00
36254;BME280;22291;52.250;21.228;2022-12-07T18:37:08;99285.41;;;0.88;100.00
36254;BME280;22291;52.250;21.228;2022-12-07T18:39:35;99294.73;;;0.90;100.00
36254;BME280;22291;52.250;21.228;2022-12-07T18:42:01;99281.42;;;0.90;100.00
36254;BME280;22291;52.250;21.228;2022-12-07T18:44:28;99280.34;;;0.91;100.00
36254;BME280;22291;52.250;21.228;2022-12-07T18:46:54;99281.41;;;0.93;100.00
36254;BME280;22291;52.250;21.228;2022-12-07T18:49:20;99315.77;;;0.97;100.00
36254;BME280;22291;52.250;21.228;2022-12-07T18:51:47;99303.50;;;0.96;100.00
36254;BME280;22291;52.250;21.228;2022-12-07T18:54:13;99301.91;;;0.90;99.65
36254;BME280;22291;52.250;21.228;2022-12-07T18:56:40;99313.89;;;0.85;99.18